createdAt,value
2022-10-19T03:47:18.249Z,16.80
2022-10-19T03:49:45.633Z,16.70
2022-10-19T03:52:12.625Z,16.70
2022-10-19T03:54:39.633Z,16.70
2022-10-19T03:57:06.801Z,16.60
2022-10-19T03:59:33.736Z,16.70
2022-10-19T04:02:00.653Z,16.60
2022-10-19T04:04:27.607Z,16.60
2022-10-19T04:06:54.574Z,16.60
2022-10-19T04:09:22.324Z,16.60
2022-10-19T04:11:49.404Z,16.70
2022-10-19T04:14:26.781Z,16.70
2022-10-19T04:17:00.829Z,16.70
2022-10-19T04:19:27.785Z,16.70
2022-10-19T04:21:54.770Z,16.70
2022-10-19T04:24:21.982Z,16.70
2022-10-19T04:26:50.468Z,16.70
2022-10-19T04:29:19.104Z,16.70
2022-10-19T04:31:46.241Z,16.60
2022-10-19T04:34:13.221Z,16.60
2022-10-19T04:36:40.165Z,16.60
2022-10-19T04:39:07.769Z,16.50
2022-10-19T04:41:35.019Z,16.50
2022-10-19T04:44:02.958Z,16.50
2022-10-19T04:46:30.329Z,16.50
2022-10-19T04:48:57.884Z,16.40
2022-10-19T04:51:25.558Z,16.40
2022-10-19T04:53:55.554Z,16.40
2022-10-19T04:56:29.162Z,16.40
2022-10-19T04:58:57.481Z,16.30
2022-10-19T05:01:25.490Z,16.30
2022-10-19T05:06:24.666Z,16.30
2022-10-19T05:08:51.741Z,16.20
2022-10-19T05:11:19.191Z,16.20
2022-10-19T05:13:46.416Z,16.20
2022-10-19T05:16:14.862Z,16.20
2022-10-19T05:18:42.042Z,16.30
2022-10-19T05:21:08.980Z,16.30
2022-10-19T05:23:36.265Z,16.30
2022-10-19T05:26:23.473Z,16.40
2022-10-19T05:28:51.487Z,16.40
2022-10-19T05:31:19.743Z,16.40
2022-10-19T05:33:46.897Z,16.30
2022-10-19T05:36:15.452Z,16.20
2022-10-19T05:38:43.184Z,16.20
2022-10-19T05:41:10.167Z,16.20
2022-10-19T05:43:37.169Z,16.20
2022-10-19T05:46:05.540Z,16.10
2022-10-19T05:48:35.805Z,16.20
2022-10-19T05:51:05.213Z,16.10
2022-10-19T05:53:32.823Z,16.10
2022-10-19T05:55:59.817Z,16.10
2022-10-19T05:58:26.771Z,16.10
2022-10-19T06:00:54.917Z,16.20
2022-10-19T06:03:22.418Z,16.20
2022-10-19T06:05:49.863Z,16.20
2022-10-19T06:08:17.556Z,16.10
2022-10-19T06:10:44.956Z,16.20
2022-10-19T06:13:12.247Z,16.20
2022-10-19T06:15:40.199Z,16.20
2022-10-19T06:18:07.717Z,16.20
2022-10-19T06:20:38.558Z,16.20
2022-10-19T06:23:05.878Z,16.30
2022-10-19T06:25:33.338Z,16.30
2022-10-19T06:28:00.712Z,16.30
2022-10-19T06:30:28.143Z,16.40
2022-10-19T06:32:55.244Z,16.40
2022-10-19T06:35:22.267Z,16.50
2022-10-19T06:37:49.341Z,16.50
2022-10-19T06:40:16.437Z,16.60
2022-10-19T06:42:43.434Z,16.60
2022-10-19T06:45:10.730Z,16.60
2022-10-19T06:47:38.258Z,16.60
2022-10-19T06:50:06.028Z,16.60
2022-10-19T06:52:34.229Z,16.70
2022-10-19T06:55:01.836Z,16.80
2022-10-19T06:57:28.833Z,16.80
2022-10-19T06:59:55.837Z,16.90
2022-10-19T07:02:22.843Z,16.90
2022-10-19T07:04:49.797Z,17.00
2022-10-19T07:07:16.774Z,17.00
2022-10-19T07:09:43.870Z,17.10
2022-10-19T07:12:10.885Z,17.10
2022-10-19T07:14:39.707Z,17.20
2022-10-19T07:17:07.234Z,17.20
2022-10-19T07:19:34.301Z,17.20
2022-10-19T07:22:01.275Z,17.30
2022-10-19T07:24:28.254Z,17.30
2022-10-19T07:26:55.637Z,17.30
2022-10-19T07:29:22.582Z,17.40
2022-10-19T07:31:49.582Z,17.40
2022-10-19T07:34:16.639Z,17.40
2022-10-19T07:36:45.315Z,17.50
2022-10-19T07:39:13.141Z,17.50
2022-10-19T07:41:40.297Z,17.50
2022-10-19T07:44:08.256Z,17.50
2022-10-19T07:46:37.264Z,17.50
2022-10-19T07:49:05.343Z,17.50
2022-10-19T07:51:32.284Z,17.50
2022-10-19T07:53:59.393Z,17.50
2022-10-19T07:56:27.245Z,17.40
2022-10-19T07:58:56.176Z,17.40
2022-10-19T08:01:24.191Z,17.40
2022-10-19T08:04:43.271Z,17.40
2022-10-19T08:06:41.586Z,17.40
2022-10-19T08:09:08.670Z,17.40
2022-10-19T08:11:35.773Z,17.40
2022-10-19T08:14:03.275Z,17.50
2022-10-19T08:16:33.020Z,17.50
2022-10-19T08:19:01.388Z,17.40
2022-10-19T08:21:28.978Z,17.40
2022-10-19T08:23:56.078Z,17.40
2022-10-19T08:26:23.081Z,17.40
2022-10-19T08:28:50.203Z,17.40
2022-10-19T08:31:18.782Z,17.40
2022-10-19T08:33:46.133Z,17.50
2022-10-19T08:36:13.630Z,17.50
2022-10-19T08:38:41.336Z,17.60
2022-10-19T08:41:26.861Z,17.60
2022-10-19T08:44:03.993Z,17.60
2022-10-19T08:46:56.306Z,17.70
2022-10-19T08:49:24.918Z,17.80
2022-10-19T08:51:54.862Z,17.80
2022-10-19T08:54:22.379Z,17.80
2022-10-19T08:57:05.658Z,17.90
2022-10-19T08:59:46.833Z,17.90
2022-10-19T09:02:17.381Z,17.90
2022-10-19T09:04:53.833Z,17.90
2022-10-19T09:07:26.663Z,18.00
2022-10-19T09:09:56.674Z,18.00
2022-10-19T09:12:42.102Z,18.00
2022-10-19T09:15:14.762Z,18.00
2022-10-19T09:17:41.751Z,18.00
2022-10-19T09:20:31.500Z,18.10
2022-10-19T09:23:01.230Z,18.10
2022-10-19T09:25:29.631Z,18.10
2022-10-19T09:28:14.906Z,18.10
2022-10-19T09:30:42.894Z,18.10
2022-10-19T09:33:15.479Z,18.10
2022-10-19T09:35:44.298Z,18.10
2022-10-19T09:38:12.277Z,18.10
2022-10-19T09:40:39.197Z,18.10
2022-10-19T09:43:19.466Z,18.10
2022-10-19T09:45:46.394Z,18.10
2022-10-19T09:48:22.167Z,18.00
2022-10-19T09:50:52.666Z,18.10
2022-10-19T09:53:20.937Z,18.10
2022-10-19T09:55:51.269Z,18.20
2022-10-19T09:58:19.214Z,18.20
2022-10-19T10:00:47.453Z,18.20
2022-10-19T10:03:31.000Z,18.20
2022-10-19T10:05:59.591Z,18.20
2022-10-19T10:08:29.326Z,18.20
2022-10-19T10:10:59.474Z,18.20
2022-10-19T10:13:28.025Z,18.20
2022-10-19T10:16:00.341Z,18.20
2022-10-19T10:18:28.770Z,18.20
2022-10-19T10:20:58.591Z,18.20
2022-10-19T10:23:26.713Z,18.20
2022-10-19T10:25:57.230Z,18.20
2022-10-19T10:28:25.822Z,18.30
2022-10-19T10:30:54.439Z,18.30
2022-10-19T10:33:40.668Z,18.40
2022-10-19T10:36:11.257Z,18.30
2022-10-19T10:38:41.042Z,18.40
2022-10-19T10:41:12.450Z,18.30
2022-10-19T10:46:28.174Z,18.30
2022-10-19T10:49:05.465Z,18.30
2022-10-19T10:51:39.491Z,18.30
2022-10-19T10:54:14.977Z,18.30
2022-10-19T10:56:43.296Z,18.30
2022-10-19T10:59:21.890Z,18.30
2022-10-19T11:02:07.522Z,18.30
2022-10-19T11:04:36.974Z,18.40
2022-10-19T11:07:17.583Z,18.40
2022-10-19T11:09:48.704Z,18.40
2022-10-19T11:12:19.186Z,18.40
2022-10-19T11:14:48.675Z,18.40
2022-10-19T11:17:21.051Z,18.40
2022-10-19T11:19:50.210Z,18.40
2022-10-19T11:22:25.020Z,18.40
2022-10-19T11:25:14.170Z,18.40
2022-10-19T11:27:56.465Z,18.50
2022-10-19T11:30:24.134Z,18.50
2022-10-19T11:32:53.905Z,18.60
2022-10-19T11:35:28.849Z,18.70
2022-10-19T11:38:19.516Z,18.70
2022-10-19T11:41:19.789Z,18.70
2022-10-19T11:43:46.699Z,18.70
2022-10-19T11:46:13.609Z,18.70
2022-10-19T11:48:43.093Z,18.70
2022-10-19T11:51:21.470Z,18.70
2022-10-19T11:53:58.940Z,18.80
2022-10-19T11:56:39.286Z,18.80
2022-10-19T11:59:29.213Z,18.80
2022-10-19T12:01:56.180Z,18.80
2022-10-19T12:04:41.850Z,18.80
2022-10-19T12:07:11.531Z,18.70
2022-10-19T12:09:43.591Z,18.80
2022-10-19T12:12:16.462Z,18.90
2022-10-19T12:14:45.041Z,18.90
2022-10-19T12:17:19.765Z,18.90
2022-10-19T12:19:49.401Z,18.90
2022-10-19T12:22:22.110Z,18.90
2022-10-19T12:24:50.807Z,18.90
2022-10-19T12:27:29.443Z,18.90
2022-10-19T12:29:58.806Z,18.90
2022-10-19T12:32:27.412Z,18.90
2022-10-19T12:35:04.518Z,18.90
2022-10-19T12:37:36.022Z,18.90
2022-10-19T12:40:18.226Z,18.90
2022-10-19T12:42:58.911Z,18.90
2022-10-19T12:45:36.419Z,18.90
2022-10-19T12:48:10.894Z,18.90
2022-10-19T12:50:50.003Z,19.00
2022-10-19T12:53:36.230Z,18.90
2022-10-19T12:56:05.260Z,18.90
2022-10-19T12:58:34.816Z,18.90
2022-10-19T13:01:05.542Z,18.90
2022-10-19T13:03:40.459Z,18.90
2022-10-19T13:06:19.800Z,18.90
2022-10-19T13:09:07.102Z,18.90
2022-10-19T13:14:03.535Z,18.90
2022-10-19T13:16:39.671Z,18.80
2022-10-19T13:19:12.762Z,18.70
2022-10-19T13:21:54.893Z,18.80
2022-10-19T13:24:24.610Z,18.80
2022-10-19T13:27:03.593Z,18.90
2022-10-19T13:29:41.128Z,18.80
2022-10-19T13:32:26.676Z,18.80
2022-10-19T13:34:53.630Z,18.80
2022-10-19T13:37:21.253Z,18.80
2022-10-19T13:39:49.169Z,18.80
2022-10-19T13:42:23.736Z,18.80
2022-10-19T13:44:52.958Z,18.70
2022-10-19T13:47:22.822Z,18.80
2022-10-19T13:49:52.634Z,18.70
2022-10-19T13:52:19.621Z,18.80
2022-10-19T13:54:49.399Z,18.80
2022-10-19T13:57:16.325Z,18.70
2022-10-19T13:59:53.739Z,18.70
2022-10-19T14:02:20.662Z,18.80
2022-10-19T14:05:02.733Z,18.90
2022-10-19T14:07:32.874Z,18.90
2022-10-19T14:10:22.744Z,18.90
2022-10-19T14:12:55.746Z,18.90
2022-10-19T14:15:22.666Z,18.90
2022-10-19T14:17:49.655Z,18.90
2022-10-19T14:20:35.263Z,18.90
2022-10-19T14:23:21.132Z,18.90
2022-10-19T14:25:51.865Z,18.90
2022-10-19T14:28:19.134Z,19.00
2022-10-19T14:30:53.850Z,19.10
2022-10-19T14:33:20.765Z,19.10
2022-10-19T14:35:49.845Z,19.10
2022-10-19T14:38:37.042Z,19.10
2022-10-19T14:41:05.197Z,19.10
2022-10-19T14:43:32.892Z,19.20
2022-10-19T14:46:15.869Z,19.30
2022-10-19T14:48:47.224Z,19.20
2022-10-19T14:51:16.986Z,19.20
2022-10-19T14:53:52.394Z,19.10
2022-10-19T14:56:28.894Z,19.10
2022-10-19T14:58:58.591Z,19.10
2022-10-19T15:01:25.655Z,19.10
2022-10-19T15:03:52.850Z,19.10
2022-10-19T15:06:24.079Z,19.10
2022-10-19T15:08:58.488Z,19.00
2022-10-19T15:11:29.734Z,19.00
2022-10-19T15:13:59.082Z,19.00
2022-10-19T15:16:30.291Z,19.00
2022-10-19T15:21:33.417Z,18.90
2022-10-19T15:24:08.130Z,19.00
2022-10-19T15:26:35.163Z,19.10
2022-10-19T15:29:20.042Z,19.20
2022-10-19T15:31:47.003Z,19.20
2022-10-19T15:34:22.897Z,19.20
2022-10-19T15:37:00.375Z,19.10
2022-10-19T15:39:39.734Z,19.10
2022-10-19T15:42:27.678Z,19.10
2022-10-19T15:44:54.601Z,18.90
2022-10-19T15:47:23.206Z,18.90
2022-10-19T15:49:55.584Z,18.90
2022-10-19T15:52:23.686Z,18.90
2022-10-19T15:54:51.462Z,18.90
2022-10-19T15:57:35.212Z,19.00
2022-10-19T16:00:08.231Z,19.00
2022-10-19T16:02:35.242Z,19.10
2022-10-19T16:05:02.228Z,19.00
2022-10-19T16:07:30.498Z,19.00
2022-10-19T16:09:57.827Z,19.00
2022-10-19T16:12:26.294Z,19.00
2022-10-19T16:14:54.006Z,19.10
2022-10-19T16:17:21.072Z,19.10
2022-10-19T16:19:48.048Z,19.20
2022-10-19T16:22:15.494Z,19.20
2022-10-19T16:24:42.425Z,19.30
2022-10-19T16:27:09.453Z,19.30
2022-10-19T16:29:36.457Z,19.30
2022-10-19T16:32:03.424Z,19.30
2022-10-19T16:34:30.442Z,19.30
2022-10-19T16:36:57.565Z,19.20
2022-10-19T16:39:25.632Z,19.20
2022-10-19T16:41:52.609Z,19.20
2022-10-19T16:44:19.604Z,19.20
2022-10-19T16:46:46.546Z,19.20
2022-10-19T16:49:13.962Z,19.20
2022-10-19T16:51:41.232Z,19.20
2022-10-19T16:54:09.993Z,19.10
2022-10-19T16:56:37.226Z,19.10
2022-10-19T16:59:05.762Z,19.10
2022-10-19T17:01:33.557Z,19.10
2022-10-19T17:04:00.603Z,19.10
2022-10-19T17:06:27.953Z,19.00
2022-10-19T17:11:45.089Z,19.00
2022-10-19T17:14:12.527Z,19.00
2022-10-19T17:16:39.885Z,19.00
2022-10-19T17:19:07.514Z,18.90
2022-10-19T17:21:37.918Z,18.90
2022-10-19T17:24:06.471Z,18.80
2022-10-19T17:26:35.213Z,18.80
2022-10-19T17:29:02.365Z,18.80
2022-10-19T17:31:29.678Z,18.80
2022-10-19T17:33:56.958Z,18.70
2022-10-19T17:36:26.307Z,18.70
2022-10-19T17:38:54.363Z,18.70
2022-10-19T17:41:22.192Z,18.70
2022-10-19T17:43:51.683Z,18.60
2022-10-19T17:46:20.221Z,18.60
2022-10-19T17:48:47.181Z,18.60
2022-10-19T17:51:18.290Z,18.50
2022-10-19T17:53:46.562Z,18.50
2022-10-19T17:56:14.772Z,18.50
2022-10-19T17:58:42.106Z,18.40
2022-10-19T18:01:09.552Z,18.40
2022-10-19T18:03:37.378Z,18.40
2022-10-19T18:06:06.852Z,18.30
2022-10-19T18:08:38.547Z,18.40
2022-10-19T18:11:16.306Z,18.30
2022-10-19T18:13:43.586Z,18.30
2022-10-19T18:16:17.856Z,18.30
2022-10-19T18:18:51.158Z,18.30
2022-10-19T18:21:20.699Z,18.30
2022-10-19T18:23:48.069Z,18.20
2022-10-19T18:26:22.334Z,18.20
2022-10-19T18:28:50.223Z,18.20
2022-10-19T18:31:21.056Z,18.20
2022-10-19T18:33:48.838Z,18.10
2022-10-19T18:36:16.254Z,18.10
2022-10-19T18:38:43.241Z,18.10
2022-10-19T18:43:50.093Z,18.10
2022-10-19T18:46:18.090Z,18.00
2022-10-19T18:48:45.123Z,18.00
2022-10-19T18:51:13.032Z,18.00
2022-10-19T18:53:40.014Z,18.00
2022-10-19T18:56:08.113Z,17.90
2022-10-19T18:58:35.293Z,17.90
2022-10-19T19:01:03.492Z,17.90
2022-10-19T19:03:30.513Z,17.90
2022-10-19T19:06:01.202Z,17.90
2022-10-19T19:08:28.524Z,17.80
2022-10-19T19:10:55.979Z,17.80
2022-10-19T19:13:23.170Z,17.80
2022-10-19T19:15:57.673Z,17.80
2022-10-19T19:18:24.731Z,17.80
2022-10-19T19:20:52.106Z,17.70
2022-10-19T19:23:19.407Z,17.60
2022-10-19T19:25:46.753Z,17.50
2022-10-19T19:28:13.775Z,17.50
2022-10-19T19:30:41.975Z,17.50
2022-10-19T19:33:08.938Z,17.50
2022-10-19T19:35:41.813Z,17.40
2022-10-19T19:38:08.931Z,17.40
2022-10-19T19:40:38.631Z,17.30
2022-10-19T19:43:05.642Z,17.40
2022-10-19T19:45:32.569Z,17.40
2022-10-19T19:47:59.615Z,17.40
2022-10-19T19:50:26.621Z,17.30
2022-10-19T19:52:53.573Z,17.20
2022-10-19T19:55:20.493Z,17.20
2022-10-19T19:57:49.903Z,17.20
2022-10-19T20:00:17.162Z,17.20
2022-10-19T20:02:44.214Z,17.20
2022-10-19T20:05:11.162Z,17.20
2022-10-19T20:07:38.196Z,17.20
2022-10-19T20:10:05.434Z,17.20
2022-10-19T20:12:32.370Z,17.20
2022-10-19T20:14:59.668Z,17.20
2022-10-19T20:17:26.589Z,17.20
2022-10-19T20:19:53.569Z,17.10
2022-10-19T20:24:52.339Z,17.00
2022-10-19T20:27:19.278Z,17.10
2022-10-19T20:29:46.258Z,17.10
2022-10-19T20:32:13.243Z,17.10
2022-10-19T20:34:40.262Z,17.00
2022-10-19T20:37:07.214Z,16.90
2022-10-19T20:39:34.142Z,16.90
2022-10-19T20:42:01.085Z,16.90
2022-10-19T20:44:27.998Z,16.90
2022-10-19T20:46:54.984Z,16.90
2022-10-19T20:49:22.015Z,16.80
2022-10-19T20:51:50.370Z,16.80
2022-10-19T20:54:17.324Z,16.80
2022-10-19T20:56:44.257Z,16.70
2022-10-19T20:59:16.126Z,16.80
2022-10-19T21:01:44.232Z,16.70
2022-10-19T21:04:12.158Z,16.70
2022-10-19T21:06:40.452Z,16.70
2022-10-19T21:09:08.103Z,16.60
2022-10-19T21:11:36.347Z,16.60
2022-10-19T21:14:05.473Z,16.50
2022-10-19T21:16:37.648Z,16.60
2022-10-19T21:19:06.108Z,16.70
2022-10-19T21:21:34.261Z,16.80
2022-10-19T21:24:08.501Z,16.70
2022-10-19T21:26:36.142Z,16.70
2022-10-19T21:29:03.802Z,16.70
2022-10-19T21:31:31.045Z,16.60
2022-10-19T21:33:58.053Z,16.60
2022-10-19T21:36:25.225Z,16.70
2022-10-19T21:38:52.236Z,16.70
2022-10-19T21:41:23.678Z,16.80
2022-10-19T21:43:53.638Z,16.80
2022-10-19T21:46:21.598Z,16.90
2022-10-19T21:48:48.687Z,16.90
2022-10-19T21:51:51.000Z,16.90
2022-10-19T21:54:19.142Z,16.90
2022-10-19T21:56:46.523Z,16.90
2022-10-19T21:59:13.837Z,16.90
2022-10-19T22:01:41.473Z,16.90
2022-10-19T22:04:18.067Z,16.90
2022-10-19T22:06:45.372Z,16.90
2022-10-19T22:09:14.255Z,16.90
2022-10-19T22:11:41.251Z,16.90
2022-10-19T22:14:08.219Z,16.90
2022-10-19T22:16:36.705Z,17.00
2022-10-19T22:19:05.022Z,17.00
2022-10-19T22:21:33.065Z,16.90
2022-10-19T22:24:01.167Z,16.90
2022-10-19T22:26:29.512Z,16.90
2022-10-19T22:28:57.085Z,17.00
2022-10-19T22:31:24.433Z,17.00
2022-10-19T22:33:51.375Z,17.00
2022-10-19T22:36:18.649Z,17.10
2022-10-19T22:38:45.578Z,17.10
2022-10-19T22:41:12.493Z,17.10
2022-10-19T22:43:39.441Z,17.20
2022-10-19T22:46:06.385Z,17.20
2022-10-19T22:48:33.388Z,17.20
2022-10-19T22:51:00.318Z,17.20
2022-10-19T22:53:27.313Z,17.20
2022-10-19T22:55:54.256Z,17.20
2022-10-19T22:58:21.266Z,17.20
